Time;durP1;ratioP1;P1;durP2;ratioP2;P2;SDS_P1;SDS_P2;PMS_P1;PMS_P2;Temp;Humidity;BMP_temperature;BMP_pressure;BME280_temperature;BME280_humidity;BME280_pressure;Samples;Min_cycle;Max_cycle;Signal;HPM_P1;HPM_P2
2024/01/31 00:00:33;;;;;;;31.98;19.75;;;7.60;99.90;;;;;;5053571;28;20210;-72
2024/01/31 00:03:01;;;;;;;30.35;19.25;;;7.60;99.90;;;;;;5052927;28;20396;-72
2024/01/31 00:05:29;;;;;;;30.15;19.45;;;7.60;99.90;;;;;;5052389;28;20229;-72
2024/01/31 00:07:57;;;;;;;28.63;19.63;;;7.60;99.90;;;;;;5053626;28;20754;-73
2024/01/31 00:10:24;;;;;;;27.63;19.75;;;7.60;99.90;;;;;;5053337;28;20260;-72
2024/01/31 00:12:54;;;;;;;30.73;19.90;;;7.60;99.90;;;;;;5052952;28;20267;-73
2024/01/31 00:15:22;;;;;;;28.05;18.48;;;7.60;99.90;;;;;;5049247;28;20234;-74
2024/01/31 00:17:51;;;;;;;30.90;19.23;;;7.60;99.90;;;;;;5053106;28;20230;-74
2024/01/31 00:20:19;;;;;;;33.22;19.73;;;7.60;99.90;;;;;;5046162;28;20210;-74
2024/01/31 00:22:47;;;;;;;37.55;20.33;;;7.60;99.90;;;;;;5051136;28;20328;-74
2024/01/31 00:25:15;;;;;;;29.20;19.77;;;7.60;99.90;;;;;;5060351;22;20242;-60
2024/01/31 00:27:43;;;;;;;27.77;19.08;;;7.50;99.90;;;;;;5043700;28;20216;-59
2024/01/31 00:30:13;;;;;;;33.13;20.20;;;7.50;99.90;;;;;;5037523;28;20214;-59
2024/01/31 00:32:41;;;;;;;32.75;20.25;;;7.40;99.90;;;;;;5027812;28;20222;-60
2024/01/31 00:35:09;;;;;;;26.52;19.42;;;7.40;99.90;;;;;;5029221;28;20221;-60
2024/01/31 00:37:37;;;;;;;30.13;18.75;;;7.40;99.90;;;;;;5030168;28;20225;-60
2024/01/31 00:40:09;;;;;;;28.27;18.75;;;7.40;99.90;;;;;;5022985;28;20281;-60
2024/01/31 00:42:39;;;;;;;31.83;19.35;;;7.40;99.90;;;;;;5027669;28;20253;-60
2024/01/31 00:45:07;;;;;;;29.40;18.80;;;7.40;99.90;;;;;;5019106;28;20285;-55
2024/01/31 00:47:36;;;;;;;27.30;18.48;;;7.40;99.90;;;;;;5018687;28;20204;-56
2024/01/31 00:50:05;;;;;;;31.65;19.52;;;7.40;99.90;;;;;;5019012;28;20209;-57
2024/01/31 00:52:33;;;;;;;36.45;20.83;;;7.40;99.90;;;;;;5023337;28;20234;-56
2024/01/31 00:55:02;;;;;;;28.30;19.58;;;7.40;99.90;;;;;;5025660;28;20233;-57
2024/01/31 00:57:30;;;;;;;28.00;19.08;;;7.40;99.90;;;;;;5029162;28;20203;-59
2024/01/31 00:59:58;;;;;;;28.92;19.30;;;7.40;99.90;;;;;;5025312;28;20199;-58
2024/01/31 01:02:25;;;;;;;29.67;19.52;;;7.40;99.90;;;;;;5029332;28;20254;-55
2024/01/31 01:04:55;;;;;;;26.50;19.00;;;7.40;99.90;;;;;;5030136;28;20203;-59
2024/01/31 01:07:23;;;;;;;23.15;17.40;;;7.40;99.90;;;;;;5029839;28;20307;-57
2024/01/31 01:09:50;;;;;;;27.10;18.25;;;7.40;99.90;;;;;;5023563;28;20291;-55
2024/01/31 01:12:18;;;;;;;30.48;18.23;;;7.40;99.90;;;;;;5030037;28;20284;-57
2024/01/31 01:14:46;;;;;;;28.63;18.52;;;7.30;99.90;;;;;;5026737;28;20233;-56
2024/01/31 01:17:14;;;;;;;34.33;19.75;;;7.30;99.90;;;;;;5013664;28;20775;-58
2024/01/31 01:19:42;;;;;;;28.48;18.98;;;7.30;99.90;;;;;;5020160;28;20289;-58
2024/01/31 01:22:11;;;;;;;31.48;18.48;;;7.30;99.90;;;;;;5031449;28;20746;-56
2024/01/31 01:24:39;;;;;;;27.42;19.80;;;7.30;99.90;;;;;;5022470;28;20696;-57
2024/01/31 01:27:07;;;;;;;32.30;19.23;;;7.30;99.90;;;;;;5024716;28;20249;-61
2024/01/31 01:29:35;;;;;;;29.08;18.65;;;7.30;99.90;;;;;;5017604;28;20266;-57
2024/01/31 01:32:03;;;;;;;28.90;19.23;;;7.30;99.90;;;;;;5024090;28;20214;-59
2024/01/31 01:34:31;;;;;;;26.60;18.40;;;7.30;99.90;;;;;;5019545;28;20211;-56
2024/01/31 01:36:59;;;;;;;30.20;19.65;;;7.30;99.90;;;;;;5019962;28;20231;-57
2024/01/31 01:39:28;;;;;;;26.88;19.25;;;7.30;99.90;;;;;;5024485;28;20203;-56
2024/01/31 01:41:56;;;;;;;25.30;18.10;;;7.30;99.90;;;;;;5024564;28;20623;-56
2024/01/31 01:44:24;;;;;;;32.05;20.02;;;7.30;99.90;;;;;;5015425;28;20277;-57
2024/01/31 01:46:52;;;;;;;30.10;20.17;;;7.30;99.90;;;;;;5014473;28;20569;-56
2024/01/31 01:49:20;;;;;;;32.60;19.40;;;7.30;99.90;;;;;;5012564;28;20211;-55
2024/01/31 01:51:48;;;;;;;31.67;20.80;;;7.30;99.90;;;;;;5021838;28;20692;-59
2024/01/31 01:54:16;;;;;;;27.50;19.52;;;7.20;99.90;;;;;;5011911;28;20234;-57
2024/01/31 01:56:46;;;;;;;28.30;18.67;;;7.20;99.90;;;;;;5016199;28;20263;-58
2024/01/31 01:59:14;;;;;;;28.90;19.20;;;7.20;99.90;;;;;;5027363;28;20206;-57
2024/01/31 02:01:42;;;;;;;28.40;18.75;;;7.20;99.90;;;;;;5023108;28;20234;-58
2024/01/31 02:04:09;;;;;;;28.10;18.30;;;7.20;99.90;;;;;;5020367;28;20616;-55
2024/01/31 02:06:37;;;;;;;27.95;18.52;;;7.20;99.90;;;;;;5022021;28;20203;-58
2024/01/31 02:09:05;;;;;;;26.30;18.42;;;7.20;99.90;;;;;;5022625;28;20211;-58
2024/01/31 02:11:33;;;;;;;29.88;18.85;;;7.20;99.90;;;;;;5025451;28;20235;-59
2024/01/31 02:14:02;;;;;;;27.23;17.52;;;7.20;99.90;;;;;;5016181;28;20293;-56
2024/01/31 02:16:30;;;;;;;26.27;17.58;;;7.20;99.90;;;;;;5018578;28;20276;-58
2024/01/31 02:18:58;;;;;;;26.42;17.23;;;7.10;99.90;;;;;;5014987;28;20203;-58
2024/01/31 02:21:27;;;;;;;26.77;18.45;;;7.10;99.90;;;;;;5017059;28;20206;-55
2024/01/31 02:23:56;;;;;;;28.85;18.95;;;7.10;99.90;;;;;;5028630;28;20661;-57
2024/01/31 02:26:23;;;;;;;27.70;18.48;;;7.10;99.90;;;;;;5029357;28;20241;-58
2024/01/31 02:28:51;;;;;;;28.67;18.52;;;7.10;99.90;;;;;;5024489;28;20688;-57
2024/01/31 02:31:19;;;;;;;26.77;18.38;;;7.10;99.90;;;;;;5023142;28;20202;-56
2024/01/31 02:33:47;;;;;;;26.33;18.60;;;7.10;99.90;;;;;;5021603;28;20237;-56
2024/01/31 02:36:15;;;;;;;26.60;17.88;;;7.10;99.90;;;;;;5018419;28;20256;-56
2024/01/31 02:38:43;;;;;;;32.58;19.67;;;7.10;99.90;;;;;;5020927;28;20250;-57
2024/01/31 02:41:12;;;;;;;26.38;19.67;;;7.10;99.90;;;;;;5025649;28;20230;-57
2024/01/31 02:43:41;;;;;;;25.88;18.83;;;7.10;99.90;;;;;;5020824;28;20228;-57
2024/01/31 02:46:09;;;;;;;30.33;20.60;;;7.10;99.90;;;;;;5017186;28;20204;-61
2024/01/31 02:48:37;;;;;;;28.58;19.60;;;7.10;99.90;;;;;;5003952;28;20209;-56
2024/01/31 02:51:05;;;;;;;30.10;19.75;;;7.10;99.90;;;;;;4996697;28;20211;-57
2024/01/31 02:53:33;;;;;;;28.98;19.25;;;7.10;99.90;;;;;;4995164;28;20737;-57
2024/01/31 02:56:01;;;;;;;28.83;18.55;;;7.10;99.90;;;;;;4991570;28;20227;-56
2024/01/31 02:58:30;;;;;;;26.35;18.70;;;7.10;99.90;;;;;;4997154;28;20282;-57
2024/01/31 03:01:00;;;;;;;27.95;18.60;;;7.10;99.90;;;;;;5019046;28;20699;-57
2024/01/31 03:03:28;;;;;;;25.95;17.58;;;7.10;99.90;;;;;;5017900;28;20281;-57
2024/01/31 03:05:56;;;;;;;32.15;18.55;;;7.10;99.90;;;;;;5002072;28;20693;-57
2024/01/31 03:08:24;;;;;;;23.70;18.00;;;7.00;99.90;;;;;;4995741;28;20720;-58
2024/01/31 03:10:52;;;;;;;27.98;19.17;;;7.00;99.90;;;;;;4995259;28;20285;-55
2024/01/31 03:13:20;;;;;;;26.35;18.20;;;7.00;99.90;;;;;;4991309;28;20260;-56
2024/01/31 03:15:49;;;;;;;23.70;18.08;;;7.00;99.90;;;;;;4991880;28;20223;-56
2024/01/31 03:18:17;;;;;;;28.17;18.17;;;7.00;99.90;;;;;;4995143;28;20204;-56
2024/01/31 03:20:45;;;;;;;23.70;17.65;;;7.00;99.90;;;;;;4997434;28;20243;-58
2024/01/31 03:23:13;;;;;;;26.00;17.05;;;7.00;99.90;;;;;;5003941;28;20231;-59
2024/01/31 03:25:41;;;;;;;26.27;16.90;;;7.00;99.90;;;;;;5007653;28;20244;-57
2024/01/31 03:28:09;;;;;;;26.30;16.80;;;7.00;99.90;;;;;;5007735;28;20211;-59
2024/01/31 03:30:37;;;;;;;25.48;17.48;;;6.90;99.90;;;;;;5010849;28;20226;-59
2024/01/31 03:33:06;;;;;;;23.00;16.88;;;6.90;99.90;;;;;;5001286;28;20544;-56
2024/01/31 03:35:34;;;;;;;21.00;15.90;;;6.90;99.90;;;;;;5001745;28;20672;-55
2024/01/31 03:38:02;;;;;;;26.20;16.42;;;6.90;99.90;;;;;;4999493;28;20231;-55
2024/01/31 03:40:30;;;;;;;29.77;17.88;;;6.90;99.90;;;;;;4995123;28;20263;-59
2024/01/31 03:42:58;;;;;;;24.73;17.13;;;6.80;99.90;;;;;;5007152;28;20273;-57
2024/01/31 03:45:27;;;;;;;26.60;17.35;;;6.80;99.90;;;;;;5010786;28;20208;-56
2024/01/31 03:47:55;;;;;;;29.10;18.02;;;6.80;99.90;;;;;;5006005;28;20204;-56
2024/01/31 03:50:24;;;;;;;23.90;17.58;;;6.80;99.90;;;;;;5004690;28;20215;-57
2024/01/31 03:52:52;;;;;;;24.73;17.30;;;6.80;99.90;;;;;;5010084;28;20226;-57
2024/01/31 03:55:20;;;;;;;30.15;17.75;;;6.80;99.90;;;;;;5006081;28;20876;-58
2024/01/31 03:57:48;;;;;;;27.85;18.27;;;6.80;99.90;;;;;;4995363;28;20224;-58
2024/01/31 04:00:16;;;;;;;23.50;16.63;;;6.80;99.90;;;;;;4994712;28;20277;-59
2024/01/31 04:02:44;;;;;;;28.25;19.88;;;6.70;99.90;;;;;;4994441;28;20227;-57
2024/01/31 04:05:12;;;;;;;27.92;18.00;;;6.70;99.90;;;;;;5002557;28;20211;-58
2024/01/31 04:07:43;;;;;;;23.00;18.05;;;6.70;99.90;;;;;;4994009;28;20283;-57
2024/01/31 04:10:14;;;;;;;24.27;17.80;;;6.70;99.90;;;;;;4994554;28;20219;-56
2024/01/31 04:12:42;;;;;;;23.30;16.73;;;6.70;99.90;;;;;;4999853;28;20672;-56
2024/01/31 04:15:10;;;;;;;26.08;16.67;;;6.70;99.90;;;;;;4996764;28;20816;-58
2024/01/31 04:17:38;;;;;;;25.48;17.33;;;6.60;99.90;;;;;;4996661;28;20906;-56
2024/01/31 04:20:07;;;;;;;26.38;17.73;;;6.60;99.90;;;;;;4994237;28;20239;-57
2024/01/31 04:22:35;;;;;;;26.52;17.90;;;6.60;99.90;;;;;;4993651;28;20303;-57
2024/01/31 04:25:05;;;;;;;25.83;19.02;;;6.60;99.90;;;;;;4996943;28;20215;-57
2024/01/31 04:27:33;;;;;;;25.45;17.85;;;6.60;99.90;;;;;;5013815;28;21414;-56
2024/01/31 04:30:01;;;;;;;29.48;19.77;;;6.60;99.90;;;;;;5016006;28;20277;-57
2024/01/31 04:32:29;;;;;;;30.83;20.55;;;6.50;99.90;;;;;;5015872;28;20255;-57
2024/01/31 04:34:57;;;;;;;27.15;17.65;;;6.50;99.90;;;;;;5015004;28;20211;-57
2024/01/31 04:37:25;;;;;;;25.25;16.80;;;6.50;99.90;;;;;;5011646;28;20227;-57
2024/01/31 04:39:53;;;;;;;26.38;18.55;;;6.50;99.90;;;;;;5011707;28;20204;-57
2024/01/31 04:42:22;;;;;;;28.45;18.90;;;6.40;99.90;;;;;;4993917;28;20256;-59
2024/01/31 04:44:50;;;;;;;27.63;16.90;;;6.40;99.90;;;;;;4993583;28;20204;-56
2024/01/31 04:47:18;;;;;;;21.75;16.23;;;6.30;99.90;;;;;;5013614;28;20238;-56
2024/01/31 04:49:46;;;;;;;23.15;16.48;;;6.30;99.90;;;;;;5014921;28;20207;-56
2024/01/31 04:52:14;;;;;;;25.77;17.25;;;6.30;99.90;;;;;;5010240;28;20227;-56
2024/01/31 04:54:42;;;;;;;23.30;15.75;;;6.20;99.90;;;;;;5011699;28;20710;-56
2024/01/31 04:57:09;;;;;;;23.98;16.45;;;6.20;99.90;;;;;;5011370;28;20227;-58
2024/01/31 04:59:39;;;;;;;21.30;16.02;;;6.10;99.90;;;;;;4999809;28;20265;-57
2024/01/31 05:02:08;;;;;;;22.85;16.38;;;6.10;99.90;;;;;;5006897;28;20257;-59
2024/01/31 05:04:36;;;;;;;24.30;16.15;;;6.00;99.90;;;;;;5014824;28;20225;-58
2024/01/31 05:07:05;;;;;;;24.95;15.52;;;5.90;99.90;;;;;;5014533;28;20634;-56
2024/01/31 05:09:33;;;;;;;24.15;16.48;;;5.90;99.90;;;;;;5008435;28;20204;-57
2024/01/31 05:12:00;;;;;;;22.98;16.17;;;5.90;99.90;;;;;;4993322;28;20208;-57
2024/01/31 05:14:28;;;;;;;22.92;15.60;;;5.80;99.90;;;;;;4995043;28;20955;-56
2024/01/31 05:16:58;;;;;;;20.92;15.82;;;5.80;99.90;;;;;;4997258;28;20290;-56
2024/01/31 05:19:27;;;;;;;20.48;15.57;;;5.80;99.90;;;;;;4993038;28;20199;-57
2024/01/31 05:21:57;;;;;;;23.75;16.05;;;5.70;99.90;;;;;;4996138;28;20203;-58
2024/01/31 05:24:25;;;;;;;22.75;16.17;;;5.70;99.90;;;;;;4992857;28;20212;-57
2024/01/31 05:26:53;;;;;;;24.10;15.80;;;5.70;99.90;;;;;;4993452;28;20204;-56
2024/01/31 05:29:21;;;;;;;25.67;16.42;;;5.60;99.90;;;;;;4994836;28;20736;-57
2024/01/31 05:31:49;;;;;;;22.48;15.88;;;5.50;99.90;;;;;;4998304;28;20736;-56
2024/01/31 05:34:18;;;;;;;22.90;15.90;;;5.50;99.90;;;;;;5009518;28;20217;-57
2024/01/31 05:36:46;;;;;;;18.13;15.05;;;5.50;99.90;;;;;;5005369;28;20222;-59
2024/01/31 05:39:14;;;;;;;20.23;14.55;;;5.40;99.90;;;;;;5011100;28;20244;-58
2024/01/31 05:41:43;;;;;;;20.42;15.38;;;5.40;99.90;;;;;;5011974;28;20234;-58
2024/01/31 05:44:11;;;;;;;19.70;14.30;;;5.40;99.90;;;;;;5005392;28;20289;-56
2024/01/31 05:46:39;;;;;;;18.15;14.07;;;5.40;99.90;;;;;;5016665;28;20297;-59
2024/01/31 05:49:07;;;;;;;19.25;14.07;;;5.30;99.90;;;;;;5014940;28;20637;-57
2024/01/31 05:51:37;;;;;;;18.67;13.55;;;5.40;99.90;;;;;;5005006;28;20208;-57
2024/01/31 05:54:04;;;;;;;16.15;13.30;;;5.30;99.90;;;;;;4997519;28;21012;-59
2024/01/31 05:56:35;;;;;;;17.77;13.88;;;5.30;99.90;;;;;;5011501;28;20278;-58
2024/01/31 05:59:02;;;;;;;19.60;13.35;;;5.30;99.90;;;;;;5013553;28;20227;-58
2024/01/31 06:01:30;;;;;;;18.10;13.50;;;5.30;99.90;;;;;;5012054;28;20206;-56
2024/01/31 06:03:58;;;;;;;14.43;12.57;;;5.30;99.90;;;;;;5011350;28;20760;-58
2024/01/31 06:06:27;;;;;;;13.98;11.75;;;5.20;99.90;;;;;;5019242;28;20231;-59
2024/01/31 06:08:56;;;;;;;20.65;12.13;;;5.20;99.90;;;;;;5004697;28;20204;-59
2024/01/31 06:11:24;;;;;;;16.85;13.23;;;5.10;99.90;;;;;;5001256;28;20225;-56
2024/01/31 06:13:52;;;;;;;16.00;13.45;;;5.10;99.90;;;;;;5011384;28;20647;-56
2024/01/31 06:16:20;;;;;;;18.02;14.25;;;5.00;99.90;;;;;;5017373;28;20632;-56
2024/01/31 06:18:48;;;;;;;15.38;13.50;;;5.00;99.90;;;;;;5011375;28;20330;-56
2024/01/31 06:21:16;;;;;;;16.17;13.10;;;4.90;99.90;;;;;;5008646;28;20644;-56
2024/01/31 06:23:43;;;;;;;16.50;13.32;;;4.90;99.90;;;;;;5010007;28;20274;-58
2024/01/31 06:26:13;;;;;;;20.00;13.80;;;4.80;99.90;;;;;;5014038;28;20680;-58
2024/01/31 06:28:41;;;;;;;20.38;13.85;;;4.80;99.90;;;;;;5017046;28;20237;-57
2024/01/31 06:31:16;;;;;;;19.38;13.82;;;4.80;99.90;;;;;;5009795;28;20211;-57
2024/01/31 06:33:45;;;;;;;18.10;12.70;;;4.80;99.90;;;;;;5008346;28;20226;-57
2024/01/31 06:36:13;;;;;;;22.15;13.60;;;4.80;99.90;;;;;;5010207;28;20209;-57
2024/01/31 06:38:41;;;;;;;19.25;14.27;;;4.70;99.90;;;;;;4992027;28;20271;-56
2024/01/31 06:41:09;;;;;;;19.05;14.02;;;4.80;99.90;;;;;;4991941;28;20274;-56
2024/01/31 06:43:38;;;;;;;43.58;25.08;;;4.80;99.90;;;;;;5024831;22;20698;-63
2024/01/31 06:46:06;;;;;;;33.75;20.45;;;4.80;99.90;;;;;;5047583;28;20217;-63
2024/01/31 06:48:34;;;;;;;16.73;13.60;;;4.80;99.90;;;;;;5051225;28;20202;-63
2024/01/31 06:51:02;;;;;;;18.23;13.48;;;4.80;99.90;;;;;;5050243;28;20214;-62
2024/01/31 06:53:31;;;;;;;18.60;12.18;;;4.80;99.90;;;;;;5044718;28;20245;-62
2024/01/31 06:56:00;;;;;;;18.95;13.45;;;4.70;99.90;;;;;;5050677;28;20251;-62
2024/01/31 06:58:28;;;;;;;17.00;12.80;;;4.70;99.90;;;;;;5048672;28;20233;-62
2024/01/31 07:01:01;;;;;;;21.23;13.85;;;4.70;99.90;;;;;;5050800;28;20202;-63
2024/01/31 07:03:29;;;;;;;17.40;12.77;;;4.70;99.90;;;;;;5050680;28;20245;-63
2024/01/31 07:05:57;;;;;;;16.60;10.15;;;4.70;99.90;;;;;;5050459;28;20560;-61
2024/01/31 07:08:25;;;;;;;17.73;9.40;;;5.30;99.90;;;;;;5050651;28;20284;-63
2024/01/31 07:10:53;;;;;;;15.18;11.32;;;6.70;99.90;;;;;;5050596;28;20202;-63
2024/01/31 07:13:21;;;;;;;14.80;11.50;;;7.30;99.90;;;;;;5050336;28;20222;-61
2024/01/31 07:15:49;;;;;;;14.20;11.10;;;7.40;99.90;;;;;;5044588;28;20276;-62
2024/01/31 07:18:18;;;;;;;15.45;11.63;;;7.10;99.90;;;;;;5054290;28;20279;-62
2024/01/31 07:20:46;;;;;;;18.10;13.65;;;6.70;99.90;;;;;;5053468;28;20202;-62
2024/01/31 07:23:14;;;;;;;21.55;13.23;;;6.40;99.90;;;;;;5053359;28;20254;-62
2024/01/31 07:25:42;;;;;;;16.42;13.13;;;6.10;99.90;;;;;;5057243;28;20810;-63
2024/01/31 07:28:10;;;;;;;16.60;10.93;;;5.90;99.90;;;;;;5053963;28;20243;-63
2024/01/31 07:30:38;;;;;;;18.40;11.50;;;5.70;99.90;;;;;;5054011;28;20209;-63
2024/01/31 07:33:06;;;;;;;15.73;11.88;;;5.50;99.90;;;;;;5053699;28;20222;-63
2024/01/31 07:35:35;;;;;;;17.23;12.18;;;5.40;99.90;;;;;;5054465;28;20198;-63
2024/01/31 07:38:04;;;;;;;15.43;12.68;;;5.30;99.90;;;;;;5053946;28;20210;-62
2024/01/31 07:40:31;;;;;;;14.95;12.38;;;5.30;99.90;;;;;;5053674;28;20362;-63
2024/01/31 07:42:59;;;;;;;16.60;12.10;;;5.20;99.90;;;;;;5058222;28;20697;-63
2024/01/31 07:45:28;;;;;;;15.45;12.35;;;5.20;99.90;;;;;;5058359;28;20290;-62
2024/01/31 07:47:56;;;;;;;15.98;12.45;;;5.20;99.90;;;;;;5052369;28;20226;-63
2024/01/31 07:50:24;;;;;;;15.88;13.32;;;5.20;99.90;;;;;;5054122;28;20202;-60
2024/01/31 07:52:54;;;;;;;15.52;12.18;;;5.20;99.90;;;;;;5052707;28;20202;-60
2024/01/31 07:55:22;;;;;;;16.13;12.88;;;5.20;99.90;;;;;;5054210;28;20209;-61
2024/01/31 07:57:49;;;;;;;16.25;13.48;;;5.10;99.90;;;;;;5053689;28;20248;-61
2024/01/31 08:00:19;;;;;;;18.35;13.48;;;5.20;99.90;;;;;;5052925;28;20655;-62
2024/01/31 08:02:47;;;;;;;15.80;12.80;;;5.20;99.90;;;;;;5051289;28;20230;-60
2024/01/31 08:05:15;;;;;;;20.75;13.52;;;5.30;99.90;;;;;;5053713;28;20202;-61
2024/01/31 08:07:44;;;;;;;17.88;12.88;;;5.20;99.90;;;;;;5046210;28;20202;-61
2024/01/31 08:10:14;;;;;;;16.33;12.90;;;5.20;99.90;;;;;;5053394;28;20209;-61
2024/01/31 08:12:42;;;;;;;17.95;12.57;;;5.30;99.90;;;;;;5053590;28;20220;-62
2024/01/31 08:15:10;;;;;;;16.40;11.57;;;5.30;99.90;;;;;;5054136;28;20210;-62
2024/01/31 08:17:38;;;;;;;16.90;12.35;;;5.40;99.90;;;;;;5053038;28;20206;-63
2024/01/31 08:20:07;;;;;;;16.27;12.70;;;5.40;99.90;;;;;;5051702;28;20266;-63
2024/01/31 08:22:36;;;;;;;18.67;13.98;;;5.30;99.90;;;;;;5051617;28;20295;-62
2024/01/31 08:25:08;;;;;;;18.33;13.38;;;5.30;99.90;;;;;;5053236;28;20675;-63
2024/01/31 08:27:37;;;;;;;17.52;13.20;;;5.40;99.90;;;;;;5052036;28;20285;-62
2024/01/31 08:30:07;;;;;;;18.33;13.70;;;5.40;99.90;;;;;;5052357;28;20248;-62
2024/01/31 08:32:35;;;;;;;20.63;13.52;;;5.50;99.90;;;;;;5052319;28;20206;-63
2024/01/31 08:35:03;;;;;;;19.63;12.88;;;5.50;99.90;;;;;;5052703;28;20678;-62
2024/01/31 08:37:31;;;;;;;18.10;13.55;;;5.60;99.90;;;;;;5051888;28;20670;-61
2024/01/31 08:39:59;;;;;;;15.00;11.57;;;5.60;99.90;;;;;;5052797;28;20221;-60
2024/01/31 08:42:28;;;;;;;14.75;12.15;;;5.70;99.90;;;;;;5050866;28;20234;-63
2024/01/31 08:44:58;;;;;;;14.90;12.48;;;5.80;99.90;;;;;;5050564;28;20240;-63
2024/01/31 08:47:26;;;;;;;13.77;10.60;;;5.90;99.90;;;;;;5051716;28;20210;-63
2024/01/31 08:49:54;;;;;;;19.35;11.60;;;6.00;99.90;;;;;;5052472;28;20662;-64
2024/01/31 08:52:22;;;;;;;14.82;10.98;;;6.10;99.90;;;;;;5051557;28;20202;-62
2024/01/31 08:54:50;;;;;;;15.73;11.10;;;6.20;99.90;;;;;;5052747;28;20234;-64
2024/01/31 08:57:18;;;;;;;15.65;10.45;;;6.20;99.90;;;;;;5052105;28;20214;-63
2024/01/31 08:59:47;;;;;;;14.75;10.75;;;6.30;99.90;;;;;;5052728;28;20221;-63
2024/01/31 09:02:17;;;;;;;11.65;9.90;;;6.40;99.90;;;;;;5051330;28;20206;-61
2024/01/31 09:04:45;;;;;;;13.60;10.30;;;6.40;99.90;;;;;;5052703;28;20221;-63
2024/01/31 09:07:13;;;;;;;14.88;10.63;;;6.50;99.90;;;;;;5051821;28;20347;-63
2024/01/31 09:09:41;;;;;;;16.33;10.20;;;6.60;99.90;;;;;;5052176;28;20682;-64
2024/01/31 09:12:09;;;;;;;16.38;10.27;;;6.60;99.90;;;;;;5045998;28;20209;-64
2024/01/31 09:14:37;;;;;;;17.63;10.13;;;6.70;99.90;;;;;;5052351;28;20261;-63
2024/01/31 09:17:06;;;;;;;13.80;10.27;;;6.80;99.90;;;;;;5051300;28;20208;-63
2024/01/31 09:19:35;;;;;;;16.33;10.90;;;6.90;99.90;;;;;;5051882;28;20229;-62
2024/01/31 09:22:04;;;;;;;9.65;7.43;;;6.90;99.90;;;;;;5051169;28;20206;-61
2024/01/31 09:24:31;;;;;;;8.82;6.85;;;7.10;99.90;;;;;;5051820;28;20332;-61
2024/01/31 09:26:59;;;;;;;9.27;6.50;;;7.10;99.90;;;;;;5051730;28;20582;-61
2024/01/31 09:29:27;;;;;;;7.25;5.45;;;7.20;99.90;;;;;;5052264;28;20210;-62
2024/01/31 09:31:55;;;;;;;6.95;5.10;;;7.20;99.90;;;;;;5052004;28;20598;-63
2024/01/31 09:34:24;;;;;;;9.85;5.07;;;7.30;99.90;;;;;;5051312;28;20327;-61
2024/01/31 09:36:54;;;;;;;6.97;5.10;;;7.30;99.90;;;;;;5051275;28;20198;-61
2024/01/31 09:39:21;;;;;;;4.22;3.83;;;7.40;99.90;;;;;;5051771;28;20723;-61
2024/01/31 09:41:49;;;;;;;9.63;4.90;;;7.40;99.90;;;;;;5051794;28;20202;-63
2024/01/31 09:44:17;;;;;;;4.75;2.67;;;7.60;99.90;;;;;;5050886;28;20340;-63
2024/01/31 09:46:45;;;;;;;4.85;2.60;;;7.60;99.90;;;;;;5051460;28;20630;-63
2024/01/31 09:49:14;;;;;;;3.65;2.60;;;7.70;99.90;;;;;;5051207;28;20590;-63
2024/01/31 09:51:42;;;;;;;4.15;2.40;;;7.90;99.90;;;;;;5051278;28;20731;-63
2024/01/31 09:54:11;;;;;;;6.28;2.10;;;8.00;99.90;;;;;;5050540;28;20230;-63
2024/01/31 09:56:40;;;;;;;4.20;2.15;;;8.00;99.90;;;;;;5050857;28;20229;-63
2024/01/31 09:59:08;;;;;;;3.70;1.85;;;8.10;99.90;;;;;;5051169;28;20671;-62
2024/01/31 10:01:36;;;;;;;2.83;1.40;;;8.40;99.90;;;;;;5050697;28;20252;-62
2024/01/31 10:04:04;;;;;;;1.27;1.17;;;8.50;99.90;;;;;;5050630;28;20288;-63
2024/01/31 10:06:32;;;;;;;4.22;1.73;;;8.80;99.90;;;;;;5050838;28;20220;-62
2024/01/31 10:09:02;;;;;;;2.05;1.27;;;9.10;99.90;;;;;;5051316;28;20213;-63
2024/01/31 10:11:32;;;;;;;2.45;1.50;;;9.40;99.90;;;;;;5051323;28;20206;-63
2024/01/31 10:13:59;;;;;;;2.53;1.15;;;9.50;99.90;;;;;;5050786;28;20707;-63
2024/01/31 10:16:27;;;;;;;2.40;1.40;;;9.40;99.90;;;;;;5050779;28;20587;-63
2024/01/31 10:18:56;;;;;;;2.00;0.90;;;9.50;99.90;;;;;;5051442;28;20213;-63
2024/01/31 10:21:24;;;;;;;2.58;1.35;;;9.40;99.90;;;;;;5050624;28;20226;-63
2024/01/31 10:23:57;;;;;;;1.85;0.93;;;9.50;99.90;;;;;;5050728;28;20859;-63
2024/01/31 10:26:25;;;;;;;3.63;1.10;;;9.40;99.90;;;;;;5051015;28;20210;-63
2024/01/31 10:28:55;;;;;;;1.67;0.95;;;9.30;99.90;;;;;;5051268;28;20213;-62
2024/01/31 10:31:36;;;;;;;1.10;0.63;;;9.20;99.90;;;;;;5051211;28;20212;-62
2024/01/31 10:34:05;;;;;;;3.17;0.70;;;9.10;99.90;;;;;;5050777;28;20237;-61
2024/01/31 10:36:33;;;;;;;1.05;0.98;;;9.20;99.90;;;;;;5050892;28;20206;-62
2024/01/31 10:39:04;;;;;;;1.27;1.17;;;9.20;99.90;;;;;;5051388;28;20241;-62
2024/01/31 10:41:32;;;;;;;1.15;1.10;;;9.10;99.90;;;;;;5050839;28;20214;-62
2024/01/31 10:44:03;;;;;;;1.60;1.50;;;9.10;99.90;;;;;;5050447;28;20766;-62
2024/01/31 10:46:31;;;;;;;2.20;1.70;;;9.20;99.90;;;;;;5050832;28;20829;-61
2024/01/31 10:48:59;;;;;;;3.28;1.95;;;9.20;99.90;;;;;;5051846;28;20202;-62
2024/01/31 10:51:27;;;;;;;4.50;1.90;;;9.20;99.90;;;;;;5054933;28;20208;-62
2024/01/31 10:53:55;;;;;;;2.40;1.33;;;9.10;99.90;;;;;;5054753;28;20275;-62
2024/01/31 10:56:24;;;;;;;2.22;1.33;;;9.10;99.90;;;;;;5055037;28;20235;-62
2024/01/31 10:58:52;;;;;;;2.90;1.77;;;9.10;99.90;;;;;;5055324;28;20251;-61
2024/01/31 11:01:30;;;;;;;2.50;1.50;;;9.20;99.90;;;;;;5054806;28;20702;-61
2024/01/31 11:03:59;;;;;;;1.45;1.25;;;9.30;99.90;;;;;;5053814;28;20744;-62
2024/01/31 11:06:28;;;;;;;2.70;1.70;;;9.30;99.90;;;;;;5055387;28;20648;-61
2024/01/31 11:08:57;;;;;;;1.92;1.08;;;9.30;99.90;;;;;;5054595;28;20603;-62
2024/01/31 11:11:25;;;;;;;1.05;1.00;;;9.30;99.90;;;;;;5054057;28;20194;-61
2024/01/31 11:13:56;;;;;;;1.00;0.90;;;9.30;99.90;;;;;;5056755;28;20217;-62
2024/01/31 11:16:24;;;;;;;1.80;1.15;;;9.30;99.90;;;;;;5053875;28;20256;-61
2024/01/31 11:18:54;;;;;;;1.10;1.05;;;9.30;99.90;;;;;;5055508;28;20248;-62
2024/01/31 11:21:22;;;;;;;0.93;0.75;;;9.30;99.90;;;;;;5055056;28;20253;-61
2024/01/31 11:23:49;;;;;;;0.73;0.70;;;9.30;99.90;;;;;;5046639;28;20217;-61
2024/01/31 11:26:18;;;;;;;1.42;0.60;;;9.30;99.90;;;;;;5049159;28;20206;-61
2024/01/31 11:28:47;;;;;;;0.57;0.47;;;9.20;99.90;;;;;;5053987;28;20233;-62
2024/01/31 11:31:15;;;;;;;1.08;0.70;;;9.20;99.90;;;;;;5050905;28;20991;-61
2024/01/31 11:33:43;;;;;;;1.65;0.55;;;9.20;99.90;;;;;;5053055;28;20225;-61
2024/01/31 11:36:13;;;;;;;1.63;0.80;;;9.20;99.90;;;;;;5050821;28;20210;-62
2024/01/31 11:38:41;;;;;;;1.38;0.70;;;9.10;99.90;;;;;;5050738;28;20753;-61
2024/01/31 11:41:08;;;;;;;2.95;0.85;;;9.10;99.90;;;;;;5054488;28;20222;-62
2024/01/31 11:43:36;;;;;;;3.17;0.60;;;9.10;99.90;;;;;;5052514;28;20233;-61
2024/01/31 11:46:04;;;;;;;1.13;0.60;;;9.10;99.90;;;;;;5053160;28;20263;-61
2024/01/31 11:48:33;;;;;;;2.05;0.50;;;9.10;99.90;;;;;;5053011;28;20214;-61
2024/01/31 11:51:01;;;;;;;1.55;0.60;;;9.10;99.90;;;;;;5054299;28;20260;-61
2024/01/31 11:53:30;;;;;;;2.65;0.50;;;9.10;99.90;;;;;;5053623;28;20226;-61
2024/01/31 11:55:58;;;;;;;1.10;0.60;;;9.10;99.90;;;;;;5054026;28;20226;-62
2024/01/31 11:58:27;;;;;;;2.53;0.52;;;9.10;99.90;;;;;;5053698;28;20252;-61
2024/01/31 12:00:55;;;;;;;1.85;0.60;;;9.10;99.90;;;;;;5053019;28;20218;-61
2024/01/31 12:03:23;;;;;;;1.20;0.88;;;9.10;99.90;;;;;;5053404;28;20794;-61
2024/01/31 12:05:57;;;;;;;3.22;0.70;;;9.10;99.90;;;;;;5053643;28;20687;-61
2024/01/31 12:08:27;;;;;;;0.63;0.63;;;9.10;99.90;;;;;;5053732;28;20205;-61
2024/01/31 12:10:56;;;;;;;1.08;0.60;;;9.10;99.90;;;;;;5053711;28;20618;-61
2024/01/31 12:13:24;;;;;;;1.55;0.80;;;9.10;99.90;;;;;;5053515;28;20230;-61
2024/01/31 12:15:52;;;;;;;1.70;0.70;;;9.10;99.90;;;;;;5053551;28;20702;-61
2024/01/31 12:18:24;;;;;;;1.35;0.80;;;9.20;99.90;;;;;;5053453;28;20263;-61
2024/01/31 12:21:00;;;;;;;1.17;0.70;;;9.30;99.90;;;;;;5053661;28;20218;-61
2024/01/31 12:23:29;;;;;;;2.05;1.10;;;9.40;99.90;;;;;;5052986;28;20232;-61
2024/01/31 12:25:58;;;;;;;1.27;0.80;;;9.40;99.90;;;;;;5053657;28;20293;-62
2024/01/31 12:28:26;;;;;;;0.93;0.70;;;9.40;99.90;;;;;;5053530;28;20210;-61
2024/01/31 12:30:56;;;;;;;3.17;1.10;;;9.50;99.90;;;;;;5053495;28;20202;-61
2024/01/31 12:33:24;;;;;;;1.08;0.75;;;9.60;99.90;;;;;;5053094;28;20287;-61
2024/01/31 12:35:52;;;;;;;1.58;0.93;;;9.60;99.90;;;;;;5053062;28;20202;-61
2024/01/31 12:38:20;;;;;;;5.40;2.75;;;9.70;99.90;;;;;;5053393;28;20209;-61
2024/01/31 12:40:48;;;;;;;0.82;0.77;;;9.70;99.90;;;;;;5053341;28;20198;-61
2024/01/31 12:43:21;;;;;;;2.35;0.85;;;9.70;99.90;;;;;;5052733;28;20737;-61
2024/01/31 12:45:50;;;;;;;1.52;1.02;;;9.80;99.90;;;;;;5052844;28;20209;-61
2024/01/31 12:48:18;;;;;;;1.00;1.00;;;9.80;99.90;;;;;;5052874;28;20264;-61